Time;durP1;ratioP1;P1;durP2;ratioP2;P2;SDS_P1;SDS_P2;PMS_P1;PMS_P2;Temp;Humidity;BMP_temperature;BMP_pressure;BME280_temperature;BME280_humidity;BME280_pressure;Samples;Min_cycle;Max_cycle;Signal;HPM_P1;HPM_P2
2021/10/10 00:00:30;;;;;;;0.98;0.98;;;6.10;99.20;;;;;;5058440;28;20036;-74
2021/10/10 00:02:56;;;;;;;2.65;1.10;;;6.10;99.20;;;;;;5061396;28;20021;-73
2021/10/10 00:05:22;;;;;;;3.35;1.13;;;6.00;99.50;;;;;;5060667;28;20013;-74
2021/10/10 00:07:47;;;;;;;2.13;2.00;;;6.00;99.50;;;;;;5061095;28;20119;-74
2021/10/10 00:10:14;;;;;;;1.58;1.48;;;5.90;99.60;;;;;;5064470;28;20028;-74
2021/10/10 00:12:40;;;;;;;2.65;1.63;;;5.90;99.70;;;;;;5061016;28;20443;-74
2021/10/10 00:15:08;;;;;;;1.30;0.93;;;5.90;99.80;;;;;;5061269;28;20063;-74
2021/10/10 00:17:33;;;;;;;2.00;1.08;;;5.90;99.80;;;;;;5061809;28;20471;-74
2021/10/10 00:19:59;;;;;;;0.52;0.52;;;5.90;99.80;;;;;;5063012;28;20035;-73
2021/10/10 00:22:24;;;;;;;3.50;1.02;;;5.90;99.80;;;;;;5052975;28;20040;-74
2021/10/10 00:24:50;;;;;;;2.63;1.20;;;5.90;99.50;;;;;;5057188;28;20087;-74
2021/10/10 00:27:15;;;;;;;0.30;0.30;;;5.80;99.50;;;;;;5062112;28;20020;-73
2021/10/10 00:29:41;;;;;;;0.60;0.60;;;5.80;99.70;;;;;;5056006;28;20017;-74
2021/10/10 00:32:09;;;;;;;2.50;1.33;;;5.80;99.60;;;;;;5056954;28;20023;-73
2021/10/10 00:34:35;;;;;;;1.92;1.70;;;5.80;99.60;;;;;;5060589;28;20025;-73
2021/10/10 00:37:00;;;;;;;0.55;0.55;;;5.70;99.90;;;;;;5062550;28;20079;-73
2021/10/10 00:39:26;;;;;;;1.77;1.13;;;5.70;99.90;;;;;;5059538;28;20163;-73
2021/10/10 00:41:51;;;;;;;0.88;0.88;;;5.70;99.80;;;;;;5063734;28;20070;-73
2021/10/10 00:44:17;;;;;;;0.65;0.65;;;5.70;99.80;;;;;;5053945;28;20498;-73
2021/10/10 00:46:42;;;;;;;1.27;1.02;;;5.60;99.90;;;;;;5059602;28;20073;-73
2021/10/10 00:49:07;;;;;;;0.47;0.47;;;5.60;99.80;;;;;;5062030;28;20017;-74
2021/10/10 00:51:36;;;;;;;1.60;1.50;;;5.60;99.90;;;;;;5057827;28;20380;-73
2021/10/10 00:54:06;;;;;;;8.38;0.85;;;5.60;99.90;;;;;;5054549;28;20028;-73
2021/10/10 00:56:32;;;;;;;0.50;0.50;;;5.60;99.90;;;;;;5056393;28;20032;-73
2021/10/10 00:58:59;;;;;;;1.75;0.70;;;5.60;99.90;;;;;;5053990;28;20507;-73
2021/10/10 01:01:27;;;;;;;1.77;1.17;;;5.50;99.90;;;;;;5059482;28;20032;-73
2021/10/10 01:03:52;;;;;;;0.63;0.57;;;5.50;99.90;;;;;;5050964;28;20033;-73
2021/10/10 01:06:18;;;;;;;1.25;1.15;;;5.50;99.90;;;;;;5060191;28;20475;-73
2021/10/10 01:08:44;;;;;;;0.60;0.60;;;5.40;99.90;;;;;;5055489;28;20027;-73
2021/10/10 01:11:10;;;;;;;0.38;0.38;;;5.40;99.90;;;;;;5051514;28;20041;-73
2021/10/10 01:13:37;;;;;;;2.72;1.48;;;5.40;99.90;;;;;;5057715;28;20039;-73
2021/10/10 01:16:03;;;;;;;0.70;0.70;;;5.40;99.90;;;;;;5053851;28;20028;-73
2021/10/10 01:18:28;;;;;;;0.93;0.93;;;5.40;99.90;;;;;;5057232;28;20024;-73
2021/10/10 01:20:55;;;;;;;0.55;0.55;;;5.30;99.90;;;;;;5053044;28;20028;-73
2021/10/10 01:23:22;;;;;;;1.70;1.58;;;5.30;99.90;;;;;;5054039;28;20127;-73
2021/10/10 01:25:47;;;;;;;0.77;0.77;;;5.30;99.90;;;;;;5056757;28;20135;-72
2021/10/10 01:28:13;;;;;;;1.35;0.60;;;5.30;99.90;;;;;;5051541;28;20104;-72
2021/10/10 01:30:38;;;;;;;1.02;1.00;;;5.30;99.90;;;;;;5051399;28;20021;-73
2021/10/10 01:33:12;;;;;;;1.20;1.10;;;5.30;99.90;;;;;;5054465;28;20082;-73
2021/10/10 01:35:39;;;;;;;23.08;2.47;;;5.30;99.90;;;;;;5053971;28;20598;-73
2021/10/10 01:38:05;;;;;;;0.52;0.45;;;5.20;99.90;;;;;;5052312;28;20039;-73
2021/10/10 01:40:32;;;;;;;1.08;1.02;;;5.20;99.90;;;;;;5052779;28;20079;-73
2021/10/10 01:42:58;;;;;;;0.55;0.55;;;5.20;99.90;;;;;;5052359;28;20031;-73
2021/10/10 01:45:24;;;;;;;0.30;0.30;;;5.20;99.90;;;;;;5051244;28;20029;-73
2021/10/10 01:47:50;;;;;;;0.65;0.57;;;5.20;99.90;;;;;;5058850;28;20025;-73
2021/10/10 01:50:16;;;;;;;1.35;1.27;;;5.10;99.90;;;;;;5057399;28;20082;-73
2021/10/10 01:52:43;;;;;;;0.52;0.52;;;5.10;99.90;;;;;;5049838;28;20016;-73
2021/10/10 01:55:10;;;;;;;1.48;1.38;;;5.10;99.90;;;;;;5052276;28;20448;-72
2021/10/10 01:57:36;;;;;;;1.50;0.90;;;5.10;99.90;;;;;;5059781;28;20032;-73
2021/10/10 02:00:03;;;;;;;3.40;2.17;;;5.00;99.90;;;;;;5059625;28;20097;-73
2021/10/10 02:02:28;;;;;;;1.55;1.30;;;5.10;99.90;;;;;;5056632;28;20067;-74
2021/10/10 02:04:54;;;;;;;1.17;1.08;;;5.10;99.90;;;;;;5059109;28;20020;-72
2021/10/10 02:07:19;;;;;;;1.15;0.88;;;5.00;99.90;;;;;;5070800;28;20107;-73
2021/10/10 02:09:45;;;;;;;0.57;0.57;;;5.00;99.90;;;;;;5061446;28;20467;-73
2021/10/10 02:12:10;;;;;;;1.15;1.13;;;5.00;99.90;;;;;;5056746;28;20097;-73
2021/10/10 02:14:36;;;;;;;2.47;1.27;;;4.90;99.90;;;;;;5062706;28;20031;-73
2021/10/10 02:17:03;;;;;;;1.15;1.15;;;4.90;99.90;;;;;;5060266;28;20025;-73
2021/10/10 02:19:28;;;;;;;1.48;1.38;;;4.90;99.90;;;;;;5057753;28;20908;-73
2021/10/10 02:21:55;;;;;;;0.63;0.63;;;4.90;99.90;;;;;;5059637;28;20128;-73
2021/10/10 02:24:21;;;;;;;2.88;2.63;;;4.80;99.90;;;;;;5060015;28;20036;-73
2021/10/10 02:26:46;;;;;;;0.63;0.63;;;4.90;99.90;;;;;;5060378;28;20044;-73
2021/10/10 02:29:12;;;;;;;2.30;1.90;;;4.90;99.90;;;;;;5056199;28;20697;-73
2021/10/10 02:31:42;;;;;;;1.98;0.82;;;4.90;99.90;;;;;;5057325;28;20426;-73
2021/10/10 02:34:09;;;;;;;1.00;1.00;;;4.90;99.90;;;;;;5060922;28;20059;-72
2021/10/10 02:36:34;;;;;;;1.33;0.82;;;4.80;99.90;;;;;;5054313;28;20745;-72
2021/10/10 02:39:00;;;;;;;2.60;1.95;;;4.80;99.90;;;;;;5060078;28;20051;-73
2021/10/10 02:41:25;;;;;;;1.25;1.15;;;4.80;99.90;;;;;;5061981;28;20063;-73
2021/10/10 02:43:50;;;;;;;2.05;1.25;;;4.80;99.90;;;;;;5056524;28;20025;-73
2021/10/10 02:46:16;;;;;;;0.47;0.47;;;4.70;99.90;;;;;;5057201;28;20024;-73
2021/10/10 02:48:41;;;;;;;1.20;0.85;;;4.70;99.90;;;;;;5052858;28;20107;-73
2021/10/10 02:51:07;;;;;;;0.82;0.82;;;4.60;99.90;;;;;;5059191;28;20025;-73
2021/10/10 02:53:32;;;;;;;1.15;0.98;;;4.60;99.90;;;;;;5056636;28;20020;-72
2021/10/10 02:55:58;;;;;;;0.55;0.55;;;4.50;99.90;;;;;;5053734;28;20066;-73
2021/10/10 02:58:23;;;;;;;3.72;1.48;;;4.50;99.90;;;;;;5053880;28;20048;-73
2021/10/10 03:00:49;;;;;;;0.40;0.40;;;4.50;99.90;;;;;;5059147;28;20032;-72
2021/10/10 03:03:14;;;;;;;0.82;0.70;;;4.50;99.90;;;;;;5066458;28;20029;-73
2021/10/10 03:05:40;;;;;;;0.65;0.65;;;4.40;99.90;;;;;;5059310;28;20581;-73
2021/10/10 03:08:05;;;;;;;1.48;1.38;;;4.40;99.90;;;;;;5061552;28;20017;-73
2021/10/10 03:10:31;;;;;;;2.65;1.17;;;4.50;99.90;;;;;;5053421;28;20398;-73
2021/10/10 03:12:56;;;;;;;2.60;0.77;;;4.50;99.90;;;;;;5063636;28;20048;-73
2021/10/10 03:15:21;;;;;;;0.73;0.73;;;4.50;99.90;;;;;;5058589;28;20028;-73
2021/10/10 03:17:47;;;;;;;0.95;0.95;;;4.50;99.90;;;;;;5053809;28;20036;-73
2021/10/10 03:20:13;;;;;;;2.85;1.75;;;4.50;99.90;;;;;;5053490;28;20032;-73
2021/10/10 03:22:38;;;;;;;4.57;0.52;;;4.40;99.90;;;;;;5060895;28;20788;-73
2021/10/10 03:25:04;;;;;;;1.65;1.05;;;4.40;99.90;;;;;;5061520;28;20025;-73
2021/10/10 03:27:29;;;;;;;1.08;0.98;;;4.40;99.90;;;;;;5061890;28;20055;-72
2021/10/10 03:29:56;;;;;;;3.25;2.15;;;4.40;99.90;;;;;;5058420;28;20033;-73
2021/10/10 03:32:21;;;;;;;2.00;1.58;;;4.40;99.90;;;;;;5060022;28;20503;-72
2021/10/10 03:34:47;;;;;;;2.20;1.17;;;4.30;99.90;;;;;;5059019;28;20033;-72
2021/10/10 03:37:12;;;;;;;1.27;1.17;;;4.30;99.90;;;;;;5049573;28;20051;-73
2021/10/10 03:39:38;;;;;;;2.60;2.40;;;4.30;99.90;;;;;;5064175;28;20699;-72
2021/10/10 03:42:03;;;;;;;3.83;1.15;;;4.30;99.90;;;;;;5054476;28;20044;-73
2021/10/10 03:44:29;;;;;;;1.20;0.80;;;4.30;99.90;;;;;;5060511;28;20033;-72
2021/10/10 03:46:54;;;;;;;0.65;0.65;;;4.30;99.90;;;;;;5063625;28;20670;-73
2021/10/10 03:49:20;;;;;;;0.77;0.77;;;4.30;99.90;;;;;;5059590;28;20048;-73
2021/10/10 03:51:45;;;;;;;1.45;0.50;;;4.20;99.90;;;;;;5054875;28;20135;-73
2021/10/10 03:54:54;;;;;;;1.08;0.65;;;4.30;99.90;;;;;;5045764;28;20458;-73
2021/10/10 03:57:02;;;;;;;1.23;0.80;;;4.20;99.90;;;;;;5046363;28;20029;-73
2021/10/10 03:59:28;;;;;;;0.50;0.50;;;4.30;99.90;;;;;;5055397;28;20119;-72
2021/10/10 04:01:53;;;;;;;0.68;0.68;;;4.20;99.90;;;;;;5053311;28;20071;-73
2021/10/10 04:04:18;;;;;;;0.60;0.60;;;4.20;99.90;;;;;;5054933;28;20029;-73
2021/10/10 04:06:44;;;;;;;0.43;0.43;;;4.20;99.90;;;;;;5059089;28;20542;-73
2021/10/10 04:09:10;;;;;;;16.20;1.20;;;4.10;99.90;;;;;;5055925;28;20034;-73
2021/10/10 04:11:35;;;;;;;2.75;1.38;;;4.10;99.90;;;;;;5056850;28;20043;-73
2021/10/10 04:14:01;;;;;;;1.80;1.65;;;4.10;99.90;;;;;;5055526;28;20025;-73
2021/10/10 04:16:26;;;;;;;0.93;0.93;;;4.00;99.90;;;;;;5051517;28;20043;-73
2021/10/10 04:18:52;;;;;;;0.50;0.50;;;4.00;99.90;;;;;;5057661;28;20021;-72
2021/10/10 04:21:17;;;;;;;1.63;1.58;;;4.00;99.90;;;;;;5056169;28;20082;-72
2021/10/10 04:23:43;;;;;;;1.02;0.98;;;4.00;99.90;;;;;;5035213;28;20033;-73
2021/10/10 04:26:08;;;;;;;0.95;0.95;;;4.00;99.90;;;;;;5032367;28;20513;-73
2021/10/10 04:28:34;;;;;;;3.80;2.05;;;4.00;99.90;;;;;;5040601;28;20087;-73
2021/10/10 04:30:59;;;;;;;0.30;0.30;;;3.90;99.90;;;;;;5038505;28;20017;-73
2021/10/10 04:33:25;;;;;;;1.77;1.25;;;4.00;99.90;;;;;;5031330;28;20447;-73
2021/10/10 04:35:50;;;;;;;0.68;0.68;;;4.00;99.90;;;;;;5037596;28;20013;-73
2021/10/10 04:38:16;;;;;;;0.40;0.40;;;4.00;99.90;;;;;;5032459;28;20109;-72
2021/10/10 04:40:42;;;;;;;0.47;0.43;;;3.90;99.90;;;;;;5040349;28;20040;-72
2021/10/10 04:43:08;;;;;;;0.85;0.85;;;3.90;99.90;;;;;;5040106;28;20033;-73
2021/10/10 04:45:33;;;;;;;2.35;1.85;;;4.00;99.90;;;;;;5039356;28;20026;-73
2021/10/10 04:47:59;;;;;;;1.75;0.88;;;4.00;99.90;;;;;;5038937;28;20469;-72
2021/10/10 04:50:25;;;;;;;1.30;0.68;;;4.00;99.90;;;;;;5029593;28;20116;-73
2021/10/10 04:52:50;;;;;;;12.95;1.92;;;3.90;99.90;;;;;;5035557;28;20524;-73
2021/10/10 04:55:16;;;;;;;2.28;1.58;;;3.90;99.90;;;;;;5038367;28;20582;-73
2021/10/10 04:57:41;;;;;;;1.27;0.70;;;3.80;99.90;;;;;;5030588;28;20033;-73
2021/10/10 05:00:08;;;;;;;1.00;0.50;;;3.90;99.90;;;;;;5035774;28;20060;-73
2021/10/10 05:02:33;;;;;;;0.52;0.52;;;3.90;99.90;;;;;;5034213;28;20036;-73
2021/10/10 05:04:58;;;;;;;0.80;0.80;;;3.90;99.90;;;;;;5038315;28;20025;-73
2021/10/10 05:07:24;;;;;;;0.30;0.30;;;3.80;99.90;;;;;;5031516;28;20822;-74
2021/10/10 05:09:50;;;;;;;0.65;0.63;;;3.90;99.90;;;;;;5034340;28;20021;-73
2021/10/10 05:12:16;;;;;;;1.35;0.98;;;3.80;99.90;;;;;;5035058;28;20472;-74
2021/10/10 05:14:42;;;;;;;3.58;1.98;;;3.90;99.90;;;;;;5031117;28;20029;-73
2021/10/10 05:17:08;;;;;;;0.65;0.65;;;3.80;99.90;;;;;;5031493;28;20032;-72
2021/10/10 05:19:34;;;;;;;0.47;0.47;;;3.80;99.90;;;;;;5033512;28;20540;-73
2021/10/10 05:21:59;;;;;;;2.38;1.50;;;3.80;99.90;;;;;;5035236;28;20593;-73
2021/10/10 05:24:25;;;;;;;1.02;1.02;;;3.80;99.90;;;;;;5057445;28;20109;-72
2021/10/10 05:26:50;;;;;;;1.52;1.42;;;3.80;99.90;;;;;;5054736;28;20509;-73
2021/10/10 05:29:16;;;;;;;1.48;0.88;;;3.80;99.90;;;;;;5051780;28;20032;-73
2021/10/10 05:31:41;;;;;;;1.50;1.40;;;3.70;99.90;;;;;;5053130;28;20036;-73
2021/10/10 05:34:07;;;;;;;0.70;0.68;;;3.80;99.90;;;;;;5059043;28;20024;-73
2021/10/10 05:36:33;;;;;;;1.85;1.67;;;3.80;99.90;;;;;;5049485;28;20033;-73
2021/10/10 05:38:58;;;;;;;0.95;0.95;;;3.80;99.90;;;;;;5055416;28;20032;-73
2021/10/10 05:41:24;;;;;;;6.57;1.95;;;3.80;99.90;;;;;;5051684;28;20094;-74
2021/10/10 05:43:50;;;;;;;1.50;1.40;;;3.80;99.90;;;;;;5061468;28;20514;-73
2021/10/10 05:46:15;;;;;;;1.35;1.25;;;3.80;99.90;;;;;;5057560;28;20020;-73
2021/10/10 05:48:41;;;;;;;0.65;0.63;;;3.80;99.90;;;;;;5053282;28;20477;-73
2021/10/10 05:51:06;;;;;;;10.50;2.05;;;3.80;99.90;;;;;;5056224;28;20021;-74
2021/10/10 05:53:32;;;;;;;1.65;1.20;;;3.80;99.90;;;;;;5049995;28;20027;-74
2021/10/10 05:56:00;;;;;;;1.80;0.82;;;3.80;99.90;;;;;;5048841;28;20032;-73
2021/10/10 05:58:27;;;;;;;0.75;0.75;;;3.80;99.90;;;;;;5053251;28;20035;-73
2021/10/10 06:00:54;;;;;;;0.63;0.60;;;3.80;99.90;;;;;;5054196;28;20064;-74
2021/10/10 06:03:20;;;;;;;1.27;1.23;;;3.90;99.90;;;;;;5053417;28;20661;-73
2021/10/10 06:05:45;;;;;;;1.80;1.70;;;3.90;99.90;;;;;;5059004;28;20131;-74
2021/10/10 06:08:11;;;;;;;0.60;0.60;;;3.90;99.90;;;;;;5056151;28;20104;-73
2021/10/10 06:10:37;;;;;;;1.75;1.20;;;3.90;99.90;;;;;;5055180;28;20658;-73
2021/10/10 06:13:03;;;;;;;0.95;0.90;;;3.90;99.90;;;;;;5056778;28;20056;-73
2021/10/10 06:15:28;;;;;;;4.18;1.17;;;3.90;99.90;;;;;;5059042;28;20043;-73
2021/10/10 06:17:54;;;;;;;0.55;0.55;;;3.90;99.90;;;;;;5059901;28;20039;-73
2021/10/10 06:20:20;;;;;;;0.32;0.32;;;4.00;99.90;;;;;;5047452;28;20108;-73
2021/10/10 06:22:45;;;;;;;1.58;1.45;;;4.10;99.90;;;;;;5055714;28;20041;-73
2021/10/10 06:25:11;;;;;;;0.63;0.57;;;4.20;99.90;;;;;;5050698;28;20033;-73
2021/10/10 06:27:36;;;;;;;0.63;0.63;;;4.20;99.90;;;;;;5050045;28;20403;-73
2021/10/10 06:30:03;;;;;;;1.30;1.13;;;4.20;99.90;;;;;;5058854;28;20078;-73
2021/10/10 06:32:28;;;;;;;0.65;0.65;;;4.30;99.90;;;;;;5054759;28;20025;-73
2021/10/10 06:34:54;;;;;;;2.42;2.00;;;4.30;99.90;;;;;;5062925;28;20082;-73
2021/10/10 06:37:19;;;;;;;3.47;2.67;;;4.40;99.90;;;;;;5062049;28;20033;-74
2021/10/10 06:39:45;;;;;;;3.72;2.40;;;4.40;99.90;;;;;;5061704;28;20025;-73
2021/10/10 06:42:10;;;;;;;1.80;1.60;;;4.50;99.90;;;;;;5063275;28;20024;-73
2021/10/10 06:44:36;;;;;;;2.30;0.93;;;4.60;99.90;;;;;;5064707;28;20044;-73
2021/10/10 06:47:02;;;;;;;1.10;0.93;;;4.60;99.90;;;;;;5056571;28;20066;-73
2021/10/10 06:49:28;;;;;;;0.98;0.98;;;4.70;99.90;;;;;;5055870;28;20048;-73
2021/10/10 06:51:53;;;;;;;1.58;1.48;;;4.80;99.90;;;;;;5065396;28;20048;-73
2021/10/10 06:54:19;;;;;;;1.70;1.60;;;4.80;99.90;;;;;;5052462;28;20533;-73
2021/10/10 06:56:44;;;;;;;2.17;1.58;;;4.90;99.90;;;;;;5057452;28;20409;-73
2021/10/10 06:59:10;;;;;;;0.40;0.40;;;5.00;99.90;;;;;;5063897;28;20062;-73
2021/10/10 07:01:36;;;;;;;4.30;1.33;;;5.10;99.90;;;;;;5062950;28;20066;-73
2021/10/10 07:04:01;;;;;;;1.92;1.20;;;5.20;99.90;;;;;;5058009;28;20025;-73
2021/10/10 07:06:27;;;;;;;1.45;1.38;;;5.30;99.90;;;;;;5065925;28;20399;-73
2021/10/10 07:08:53;;;;;;;4.03;2.90;;;5.40;99.90;;;;;;5064615;28;20499;-73
2021/10/10 07:11:19;;;;;;;0.75;0.75;;;5.50;99.90;;;;;;5063988;28;20242;-73
2021/10/10 07:13:48;;;;;;;3.15;2.67;;;5.60;99.90;;;;;;5065150;28;20043;-73
2021/10/10 07:16:15;;;;;;;0.63;0.63;;;5.70;99.90;;;;;;5066565;28;20024;-73
2021/10/10 07:18:47;;;;;;;4.75;2.53;;;5.80;99.90;;;;;;5065396;28;20034;-73
2021/10/10 07:26:36;;;;;;;0.88;0.85;;;6.10;99.90;;;;;;5059672;28;20404;-73
2021/10/10 07:29:02;;;;;;;4.78;1.65;;;6.10;99.90;;;;;;5057072;28;20029;-73
2021/10/10 07:31:28;;;;;;;0.50;0.50;;;6.30;99.90;;;;;;5056057;28;20029;-74
2021/10/10 07:33:53;;;;;;;1.40;1.30;;;6.40;99.90;;;;;;5052162;28;20029;-73
2021/10/10 07:36:19;;;;;;;3.33;3.03;;;6.40;99.90;;;;;;5057934;28;20025;-73
2021/10/10 07:38:44;;;;;;;2.53;2.33;;;6.50;99.90;;;;;;5057742;28;20127;-74
2021/10/10 07:41:10;;;;;;;1.05;1.00;;;6.60;99.90;;;;;;5057472;28;20025;-74
2021/10/10 07:43:40;;;;;;;2.35;1.60;;;6.70;99.90;;;;;;5064604;28;20028;-73
2021/10/10 07:46:08;;;;;;;0.93;0.93;;;6.80;99.90;;;;;;5063390;28;20024;-74
2021/10/10 07:48:34;;;;;;;9.80;1.98;;;6.90;99.90;;;;;;5060577;28;20029;-73
2021/10/10 07:51:00;;;;;;;5.72;2.15;;;7.00;99.90;;;;;;5061786;28;20035;-74
2021/10/10 07:53:25;;;;;;;1.17;1.08;;;7.10;99.90;;;;;;5055465;28;20021;-73
2021/10/10 07:55:51;;;;;;;2.10;1.90;;;7.20;99.90;;;;;;5060701;28;20028;-73
2021/10/10 07:58:16;;;;;;;1.65;1.17;;;7.30;99.90;;;;;;5057121;28;20024;-74
2021/10/10 08:00:42;;;;;;;1.30;1.13;;;7.40;99.90;;;;;;5057341;28;20771;-73
2021/10/10 08:03:07;;;;;;;0.80;0.80;;;7.50;99.90;;;;;;5060525;28;20029;-74
2021/10/10 08:05:42;;;;;;;0.75;0.73;;;7.60;99.90;;;;;;5059333;28;20017;-73
2021/10/10 08:08:08;;;;;;;1.70;1.48;;;7.70;99.90;;;;;;5056222;28;20146;-73
2021/10/10 08:10:34;;;;;;;2.13;1.08;;;7.80;99.80;;;;;;5051469;28;20471;-73
2021/10/10 08:12:59;;;;;;;1.65;1.52;;;7.90;99.40;;;;;;5055226;28;20021;-74
2021/10/10 08:15:25;;;;;;;0.80;0.80;;;8.10;98.90;;;;;;5056035;28;20708;-74
2021/10/10 08:17:51;;;;;;;2.95;2.03;;;8.10;98.30;;;;;;5061724;28;20039;-73
2021/10/10 08:20:16;;;;;;;2.70;1.33;;;8.20;97.80;;;;;;5058234;28;20056;-73
2021/10/10 08:22:42;;;;;;;2.50;1.83;;;8.30;97.70;;;;;;5055832;28;20118;-73
2021/10/10 08:25:13;;;;;;;1.02;1.02;;;8.50;96.50;;;;;;5055570;28;20028;-73
2021/10/10 08:27:40;;;;;;;2.03;1.77;;;8.60;95.30;;;;;;5058434;28;20427;-73
2021/10/10 08:30:08;;;;;;;0.60;0.60;;;8.70;95.30;;;;;;5055901;28;20162;-74
2021/10/10 08:32:37;;;;;;;3.63;2.00;;;8.80;95.40;;;;;;5062608;28;20029;-73
2021/10/10 08:35:04;;;;;;;2.78;2.28;;;8.90;94.20;;;;;;5060396;28;20494;-74
2021/10/10 08:37:30;;;;;;;1.52;1.33;;;9.10;93.50;;;;;;5058961;28;20782;-74
2021/10/10 08:39:55;;;;;;;0.85;0.85;;;9.20;92.70;;;;;;5061682;28;20032;-73
2021/10/10 08:42:29;;;;;;;4.13;3.13;;;9.30;92.10;;;;;;5060304;28;20028;-73
2021/10/10 08:45:04;;;;;;;2.88;1.85;;;9.40;91.70;;;;;;5056024;28;20563;-74
2021/10/10 08:47:31;;;;;;;3.22;2.03;;;9.50;90.30;;;;;;5056160;28;20059;-73
2021/10/10 08:49:57;;;;;;;1.17;0.75;;;9.60;90.10;;;;;;5060000;28;20023;-69
2021/10/10 08:52:23;;;;;;;1.85;1.65;;;9.70;90.00;;;;;;5056952;28;20017;-69
2021/10/10 08:54:49;;;;;;;1.23;0.98;;;9.70;88.00;;;;;;5052135;28;20017;-70
2021/10/10 08:57:15;;;;;;;1.58;1.40;;;9.80;89.40;;;;;;5059858;28;20055;-69
2021/10/10 08:59:42;;;;;;;1.50;1.40;;;10.00;88.30;;;;;;5055803;28;20496;-71
2021/10/10 09:02:17;;;;;;;2.17;1.75;;;10.00;87.60;;;;;;5059647;28;20040;-70
2021/10/10 09:04:43;;;;;;;10.40;2.22;;;10.10;85.50;;;;;;5053577;28;20407;-71
2021/10/10 09:07:09;;;;;;;1.60;1.17;;;10.20;85.90;;;;;;5051288;28;20032;-70
2021/10/10 09:09:36;;;;;;;1.45;1.35;;;10.30;85.80;;;;;;5058077;28;20075;-70
2021/10/10 09:12:06;;;;;;;4.00;2.45;;;10.40;83.90;;;;;;5052634;28;20029;-70
2021/10/10 09:14:46;;;;;;;1.23;1.23;;;10.40;83.90;;;;;;5059642;28;20048;-69
2021/10/10 09:17:14;;;;;;;3.15;1.38;;;10.50;84.20;;;;;;5053088;28;20043;-69
2021/10/10 09:19:47;;;;;;;6.07;1.73;;;10.60;82.60;;;;;;5052939;28;20028;-69
2021/10/10 09:22:13;;;;;;;1.05;0.68;;;10.70;81.40;;;;;;5054344;28;20102;-70
2021/10/10 09:24:38;;;;;;;1.55;1.45;;;10.80;80.50;;;;;;5056166;28;20701;-70
2021/10/10 09:27:09;;;;;;;0.50;0.50;;;10.90;80.40;;;;;;5057909;28;20357;-70
2021/10/10 09:29:39;;;;;;;1.50;0.93;;;11.00;80.50;;;;;;5035460;28;20013;-69
2021/10/10 09:32:10;;;;;;;0.65;0.65;;;11.00;77.90;;;;;;5059729;28;20035;-69
2021/10/10 09:34:37;;;;;;;2.30;1.65;;;11.10;79.20;;;;;;5049839;28;20083;-70
2021/10/10 09:37:41;;;;;;;2.72;1.42;;;11.20;79.30;;;;;;5057731;28;20059;-71
2021/10/10 09:42:39;;;;;;;2.05;1.00;;;11.40;76.20;;;;;;5051030;28;20032;-69
2021/10/10 09:45:25;;;;;;;5.63;1.42;;;11.60;76.40;;;;;;5055321;28;20387;-70
2021/10/10 09:47:53;;;;;;;0.55;0.55;;;11.70;74.80;;;;;;5058561;28;20039;-70
2021/10/10 09:50:18;;;;;;;0.50;0.50;;;11.80;75.00;;;;;;5058077;28;20029;-71
2021/10/10 09:52:44;;;;;;;0.70;0.70;;;11.90;71.40;;;;;;5054420;28;20040;-71
2021/10/10 09:55:11;;;;;;;1.23;0.98;;;12.00;70.80;;;;;;5052578;28;20032;-70
2021/10/10 09:57:49;;;;;;;0.63;0.63;;;12.10;72.10;;;;;;5055908;28;20025;-69
2021/10/10 10:00:21;;;;;;;0.38;0.38;;;12.20;70.30;;;;;;5054823;28;20055;-69
2021/10/10 10:02:48;;;;;;;1.42;1.30;;;12.30;68.60;;;;;;5052726;28;20048;-69
2021/10/10 10:05:29;;;;;;;0.55;0.55;;;12.40;68.30;;;;;;5054381;28;20617;-69
2021/10/10 10:07:56;;;;;;;;;;;12.40;68.40;;;;;;5049822;28;20227;-69
2021/10/10 10:10:22;;;;;;;0.43;0.28;;;12.50;71.20;;;;;;5054249;28;19992;-69
2021/10/10 10:12:48;;;;;;;11.02;1.92;;;12.60;68.20;;;;;;5059989;28;20039;-69
2021/10/10 10:15:16;;;;;;;1.73;1.02;;;12.70;66.10;;;;;;5059315;28;20458;-69
2021/10/10 10:17:41;;;;;;;0.28;0.28;;;12.80;63.40;;;;;;5055452;28;20028;-69
2021/10/10 10:20:12;;;;;;;0.22;0.22;;;12.90;64.80;;;;;;5062709;28;20107;-70
2021/10/10 10:22:37;;;;;;;3.35;2.45;;;13.00;63.00;;;;;;5053563;28;20493;-69
2021/10/10 10:25:10;;;;;;;2.45;1.70;;;13.10;61.90;;;;;;5057826;28;20120;-69
2021/10/10 10:27:35;;;;;;;1.27;0.65;;;13.20;60.10;;;;;;5057426;28;20029;-69
2021/10/10 10:30:20;;;;;;;3.10;1.25;;;13.20;62.90;;;;;;5065483;28;20148;-71
2021/10/10 10:32:47;;;;;;;3.10;1.75;;;13.30;60.80;;;;;;5054327;28;20049;-71
2021/10/10 10:35:15;;;;;;;1.02;0.93;;;13.30;58.30;;;;;;5060273;28;20035;-70
2021/10/10 10:37:43;;;;;;;2.15;0.50;;;13.30;58.90;;;;;;5056236;28;20025;-70
2021/10/10 10:40:15;;;;;;;5.82;0.88;;;13.40;59.90;;;;;;5059721;28;20448;-71
2021/10/10 10:42:43;;;;;;;0.32;0.32;;;13.40;58.60;;;;;;5059779;28;20095;-70
2021/10/10 10:45:24;;;;;;;1.75;0.77;;;13.50;58.60;;;;;;5064948;28;20437;-71
2021/10/10 10:47:53;;;;;;;0.32;0.32;;;13.60;57.80;;;;;;5048598;28;20116;-71
2021/10/10 10:50:31;;;;;;;1.45;1.02;;;13.70;57.20;;;;;;5061600;28;20811;-72
2021/10/10 10:53:20;;;;;;;0.85;0.85;;;13.90;57.40;;;;;;5056972;28;20075;-72
2021/10/10 10:55:54;;;;;;;0.50;0.50;;;14.20;59.40;;;;;;5040988;28;20052;-77
2021/10/10 10:58:19;;;;;;;1.70;1.48;;;14.50;56.60;;;;;;5053114;28;20036;-69
2021/10/10 11:01:02;;;;;;;0.40;0.40;;;14.80;57.50;;;;;;5055077;28;20046;-72
2021/10/10 11:03:28;;;;;;;0.73;0.73;;;15.00;55.00;;;;;;5054401;28;20037;-71
2021/10/10 11:06:18;;;;;;;1.05;0.73;;;15.40;56.20;;;;;;5058621;28;20029;-71
2021/10/10 11:08:44;;;;;;;0.95;0.75;;;15.70;56.50;;;;;;5057002;28;20028;-70
2021/10/10 11:11:12;;;;;;;5.45;1.95;;;15.80;55.10;;;;;;5053806;28;20031;-71
2021/10/10 11:13:46;;;;;;;0.45;0.45;;;16.10;54.50;;;;;;5062200;28;20054;-71
2021/10/10 11:16:18;;;;;;;1.25;1.00;;;16.30;55.80;;;;;;5064060;28;20031;-71
2021/10/10 11:19:10;;;;;;;1.48;1.33;;;16.40;53.60;;;;;;5055316;28;20031;-71
2021/10/10 11:21:44;;;;;;;2.17;1.05;;;16.70;53.90;;;;;;5047319;28;20036;-73
2021/10/10 11:24:22;;;;;;;0.60;0.60;;;16.90;52.30;;;;;;5061091;28;20028;-73
2021/10/10 11:26:50;;;;;;;0.60;0.60;;;17.20;52.20;;;;;;5061929;28;20048;-73
2021/10/10 11:29:17;;;;;;;0.85;0.52;;;17.40;52.80;;;;;;5049711;28;20025;-73
2021/10/10 11:31:45;;;;;;;1.08;1.00;;;17.50;51.50;;;;;;5060221;28;20373;-74
2021/10/10 11:34:19;;;;;;;1.65;1.55;;;17.70;50.60;;;;;;5058535;28;20694;-73
2021/10/10 11:36:50;;;;;;;1.80;1.55;;;17.80;49.30;;;;;;5064220;28;20036;-73
2021/10/10 11:39:28;;;;;;;2.90;2.05;;;18.00;50.40;;;;;;5055467;28;20028;-73
2021/10/10 11:41:58;;;;;;;3.13;2.00;;;18.20;51.20;;;;;;5045485;28;20040;-73
2021/10/10 11:44:35;;;;;;;1.40;1.15;;;18.50;49.50;;;;;;5058815;28;20021;-73
2021/10/10 11:47:04;;;;;;;0.63;0.63;;;18.60;49.00;;;;;;5059270;28;20036;-74
2021/10/10 11:49:38;;;;;;;1.50;1.40;;;18.90;48.50;;;;;;5057673;28;21890;-72
2021/10/10 11:52:06;;;;;;;3.63;2.20;;;19.00;47.20;;;;;;5055930;28;20029;-73
2021/10/10 11:54:43;;;;;;;1.23;1.10;;;19.10;47.00;;;;;;5059243;28;20047;-72
2021/10/10 11:57:10;;;;;;;0.47;0.47;;;19.30;47.80;;;;;;5058051;28;20029;-73
2021/10/10 11:59:36;;;;;;;1.23;0.93;;;19.50;45.10;;;;;;5062135;28;20032;-72
2021/10/10 12:02:03;;;;;;;1.98;1.65;;;19.60;45.40;;;;;;5060969;28;20036;-72
2021/10/10 12:04:28;;;;;;;1.42;1.00;;;19.60;45.40;;;;;;5048589;28;20060;-73
2021/10/10 12:07:04;;;;;;;0.80;0.77;;;19.50;44.20;;;;;;5056930;28;20064;-74
2021/10/10 12:09:29;;;;;;;1.20;0.98;;;19.40;43.50;;;;;;5054776;28;20028;-73
2021/10/10 12:12:09;;;;;;;2.45;1.70;;;19.30;42.10;;;;;;5055219;28;20081;-72
2021/10/10 12:14:50;;;;;;;0.95;0.73;;;19.00;44.40;;;;;;5058894;28;20028;-71
2021/10/10 12:17:34;;;;;;;1.60;1.23;;;18.60;45.90;;;;;;5057351;28;20029;-72
2021/10/10 12:20:16;;;;;;;0.60;0.60;;;18.20;45.50;;;;;;5054871;28;20274;-74
2021/10/10 12:22:48;;;;;;;1.25;1.02;;;18.00;46.50;;;;;;5053761;28;20072;-73
2021/10/10 12:25:42;;;;;;;0.88;0.80;;;18.00;45.90;;;;;;5057140;28;20518;-73
2021/10/10 12:28:13;;;;;;;3.70;0.80;;;17.90;47.00;;;;;;5056888;28;20113;-73
2021/10/10 12:30:51;;;;;;;0.68;0.68;;;17.80;46.90;;;;;;5051206;28;20047;-76
2021/10/10 12:33:40;;;;;;;0.75;0.70;;;17.70;46.10;;;;;;5055781;28;20040;-75
2021/10/10 12:36:06;;;;;;;0.90;0.90;;;17.70;47.40;;;;;;5057690;28;20029;-76
2021/10/10 12:38:37;;;;;;;1.75;0.85;;;17.90;46.00;;;;;;5059291;28;20721;-75
2021/10/10 12:41:21;;;;;;;1.75;1.48;;;18.10;46.50;;;;;;5056081;28;20024;-72
2021/10/10 12:43:55;;;;;;;1.92;1.17;;;18.20;46.90;;;;;;5058438;28;20412;-72
2021/10/10 12:46:24;;;;;;;0.40;0.40;;;18.20;46.00;;;;;;5059080;28;20391;-71
2021/10/10 12:49:35;;;;;;;0.70;0.70;;;18.20;47.10;;;;;;5057333;28;20623;-71
2021/10/10 12:52:08;;;;;;;0.93;0.73;;;18.30;46.50;;;;;;5029902;28;20498;-79
2021/10/10 12:54:42;;;;;;;0.40;0.40;;;18.60;44.50;;;;;;5054763;28;20271;-72
2021/10/10 12:57:09;;;;;;;1.80;1.25;;;19.00;44.80;;;;;;5051447;28;20028;-73
2021/10/10 12:59:38;;;;;;;19.42;1.15;;;19.30;43.70;;;;;;5059486;28;20895;-72
2021/10/10 13:02:11;;;;;;;0.52;0.52;;;19.90;42.80;;;;;;5056066;28;20029;-73
2021/10/10 13:04:39;;;;;;;0.80;0.80;;;20.70;40.20;;;;;;5057436;28;20119;-71